Terminal Aerodrome Forecast
Issued by NWS

Home | Current Version | Previous Version | Text Only | Print | Product List | Glossary On
Versions: 1 2 3 4 5 6 7 8 9 10 11 12 13 14 15 16 17
843
FTUS43 KJKL 241505 AAA
TAFSME
TAF AMD
KSME 241505Z 2415/2512 19010G18KT P6SM FEW035 SCT130
     FM241800 19013G23KT P6SM FEW035 SCT090
     FM250200 19010KT P6SM VCTS BKN035CB
     FM250400 22011G19KT 3SM SHRA VCTS OVC025CB=

USA.gov is the U.S. government's official web portal to all federal, state and local government web resources and services.